sensor_id;sensor_type;location;lat;lon;timestamp;temperature;humidity
65766;SHT31;52915;53.718;19.946;2023-10-08T00:03:37;10.24;68.17
65766;SHT31;52915;53.718;19.946;2023-10-08T00:08:41;10.22;68.05
65766;SHT31;52915;53.718;19.946;2023-10-08T00:13:45;10.20;67.97
65766;SHT31;52915;53.718;19.946;2023-10-08T00:18:52;10.16;67.93
65766;SHT31;52915;53.718;19.946;2023-10-08T00:23:56;10.14;67.92
65766;SHT31;52915;53.718;19.946;2023-10-08T00:29:04;10.11;68.18
65766;SHT31;52915;53.718;19.946;2023-10-08T00:34:19;10.08;68.26
65766;SHT31;52915;53.718;19.946;2023-10-08T00:39:23;10.03;68.17
65766;SHT31;52915;53.718;19.946;2023-10-08T00:44:27;9.96;68.05
65766;SHT31;52915;53.718;19.946;2023-10-08T00:49:36;9.91;67.76
65766;SHT31;52915;53.718;19.946;2023-10-08T00:54:41;9.83;67.65
65766;SHT31;52915;53.718;19.946;2023-10-08T00:59:58;9.75;67.57
65766;SHT31;52915;53.718;19.946;2023-10-08T01:05:03;9.69;67.44
65766;SHT31;52915;53.718;19.946;2023-10-08T01:10:07;9.63;67.35
65766;SHT31;52915;53.718;19.946;2023-10-08T01:15:13;9.53;67.46
65766;SHT31;52915;53.718;19.946;2023-10-08T01:20:27;9.44;67.52
65766;SHT31;52915;53.718;19.946;2023-10-08T01:25:37;9.36;67.72
65766;SHT31;52915;53.718;19.946;2023-10-08T01:30:42;9.30;67.89
65766;SHT31;52915;53.718;19.946;2023-10-08T01:35:50;9.23;68.00
65766;SHT31;52915;53.718;19.946;2023-10-08T01:40:54;9.16;68.08
65766;SHT31;52915;53.718;19.946;2023-10-08T01:46:02;9.08;68.21
65766;SHT31;52915;53.718;19.946;2023-10-08T01:51:06;9.00;68.32
65766;SHT31;52915;53.718;19.946;2023-10-08T01:56:15;8.94;68.39
65766;SHT31;52915;53.718;19.946;2023-10-08T02:01:20;8.85;68.41
65766;SHT31;52915;53.718;19.946;2023-10-08T02:06:24;8.76;68.58
65766;SHT31;52915;53.718;19.946;2023-10-08T02:11:28;8.67;69.03
65766;SHT31;52915;53.718;19.946;2023-10-08T02:16:32;8.58;69.28
65766;SHT31;52915;53.718;19.946;2023-10-08T02:21:37;8.52;69.51
65766;SHT31;52915;53.718;19.946;2023-10-08T02:26:43;8.47;69.69
65766;SHT31;52915;53.718;19.946;2023-10-08T02:31:47;8.41;69.74
65766;SHT31;52915;53.718;19.946;2023-10-08T02:36:51;8.36;69.68
65766;SHT31;52915;53.718;19.946;2023-10-08T02:41:56;8.32;69.75
65766;SHT31;52915;53.718;19.946;2023-10-08T02:47:02;8.21;69.86
65766;SHT31;52915;53.718;19.946;2023-10-08T02:52:07;8.14;69.68
65766;SHT31;52915;53.718;19.946;2023-10-08T02:57:14;8.04;69.74
65766;SHT31;52915;53.718;19.946;2023-10-08T03:02:18;8.00;69.59
65766;SHT31;52915;53.718;19.946;2023-10-08T03:07:23;7.95;69.72
65766;SHT31;52915;53.718;19.946;2023-10-08T03:12:36;7.86;69.94
65766;SHT31;52915;53.718;19.946;2023-10-08T03:17:41;7.78;70.10
65766;SHT31;52915;53.718;19.946;2023-10-08T03:23:08;7.68;70.25
65766;SHT31;52915;53.718;19.946;2023-10-08T03:28:34;7.61;70.40
65766;SHT31;52915;53.718;19.946;2023-10-08T03:33:38;7.57;70.21
65766;SHT31;52915;53.718;19.946;2023-10-08T03:38:43;7.52;70.15
65766;SHT31;52915;53.718;19.946;2023-10-08T03:43:56;7.44;70.22
65766;SHT31;52915;53.718;19.946;2023-10-08T03:49:12;7.35;70.14
65766;SHT31;52915;53.718;19.946;2023-10-08T03:54:25;7.30;69.93
65766;SHT31;52915;53.718;19.946;2023-10-08T03:59:39;7.25;69.81
65766;SHT31;52915;53.718;19.946;2023-10-08T04:04:45;7.18;69.74
65766;SHT31;52915;53.718;19.946;2023-10-08T04:09:55;7.14;69.44
65766;SHT31;52915;53.718;19.946;2023-10-08T04:15:13;7.10;69.25
65766;SHT31;52915;53.718;19.946;2023-10-08T04:20:20;7.12;68.94
65766;SHT31;52915;53.718;19.946;2023-10-08T04:25:42;7.16;68.32
65766;SHT31;52915;53.718;19.946;2023-10-08T04:30:47;7.13;68.03
65766;SHT31;52915;53.718;19.946;2023-10-08T04:35:51;7.05;67.79
65766;SHT31;52915;53.718;19.946;2023-10-08T04:40:59;6.98;67.43
65766;SHT31;52915;53.718;19.946;2023-10-08T04:46:05;6.94;67.10
65766;SHT31;52915;53.718;19.946;2023-10-08T04:51:22;6.90;67.00
65766;SHT31;52915;53.718;19.946;2023-10-08T04:56:26;6.85;66.76
65766;SHT31;52915;53.718;19.946;2023-10-08T05:01:31;6.82;66.36
65766;SHT31;52915;53.718;19.946;2023-10-08T05:06:51;6.81;66.06
65766;SHT31;52915;53.718;19.946;2023-10-08T05:12:04;6.82;65.81
65766;SHT31;52915;53.718;19.946;2023-10-08T05:17:15;6.80;65.84
65766;SHT31;52915;53.718;19.946;2023-10-08T05:22:21;6.84;65.65
65766;SHT31;52915;53.718;19.946;2023-10-08T05:27:33;6.86;65.60
65766;SHT31;52915;53.718;19.946;2023-10-08T05:33:00;6.94;65.25
65766;SHT31;52915;53.718;19.946;2023-10-08T05:38:07;7.06;65.06
65766;SHT31;52915;53.718;19.946;2023-10-08T05:43:35;7.21;64.62
65766;SHT31;52915;53.718;19.946;2023-10-08T05:48:40;7.35;64.20
65766;SHT31;52915;53.718;19.946;2023-10-08T05:53:48;7.52;63.63
65766;SHT31;52915;53.718;19.946;2023-10-08T05:59:00;7.70;63.39
65766;SHT31;52915;53.718;19.946;2023-10-08T06:04:19;7.89;62.59
65766;SHT31;52915;53.718;19.946;2023-10-08T06:09:41;8.07;62.42
65766;SHT31;52915;53.718;19.946;2023-10-08T06:14:56;8.27;61.43
65766;SHT31;52915;53.718;19.946;2023-10-08T06:20:12;8.48;61.06
65766;SHT31;52915;53.718;19.946;2023-10-08T06:25:20;8.71;60.65
65766;SHT31;52915;53.718;19.946;2023-10-08T06:30:27;8.93;60.04
65766;SHT31;52915;53.718;19.946;2023-10-08T06:35:33;9.13;59.31
65766;SHT31;52915;53.718;19.946;2023-10-08T06:40:37;9.32;58.98
65766;SHT31;52915;53.718;19.946;2023-10-08T06:45:42;9.59;58.77
65766;SHT31;52915;53.718;19.946;2023-10-08T06:50:51;9.86;58.10
65766;SHT31;52915;53.718;19.946;2023-10-08T06:56:12;10.12;57.86
65766;SHT31;52915;53.718;19.946;2023-10-08T07:01:23;10.40;57.20
65766;SHT31;52915;53.718;19.946;2023-10-08T07:06:32;10.61;57.03
65766;SHT31;52915;53.718;19.946;2023-10-08T07:11:40;10.81;56.18
65766;SHT31;52915;53.718;19.946;2023-10-08T07:16:49;10.87;54.72
65766;SHT31;52915;53.718;19.946;2023-10-08T07:21:56;11.02;55.10
65766;SHT31;52915;53.718;19.946;2023-10-08T07:27:06;11.28;54.40
65766;SHT31;52915;53.718;19.946;2023-10-08T07:32:12;11.55;54.05
65766;SHT31;52915;53.718;19.946;2023-10-08T07:37:22;11.65;53.39
65766;SHT31;52915;53.718;19.946;2023-10-08T07:42:26;11.81;53.38
65766;SHT31;52915;53.718;19.946;2023-10-08T07:47:31;12.09;53.38
65766;SHT31;52915;53.718;19.946;2023-10-08T07:52:35;12.43;52.76
65766;SHT31;52915;53.718;19.946;2023-10-08T07:57:42;12.55;51.92
65766;SHT31;52915;53.718;19.946;2023-10-08T08:02:50;12.87;51.79
65766;SHT31;52915;53.718;19.946;2023-10-08T08:07:56;13.00;50.51
65766;SHT31;52915;53.718;19.946;2023-10-08T08:13:03;13.11;50.83
65766;SHT31;52915;53.718;19.946;2023-10-08T08:18:13;12.95;49.78
65766;SHT31;52915;53.718;19.946;2023-10-08T08:23:26;13.13;50.40
65766;SHT31;52915;53.718;19.946;2023-10-08T08:28:30;13.26;49.78
65766;SHT31;52915;53.718;19.946;2023-10-08T08:33:34;13.54;49.99
65766;SHT31;52915;53.718;19.946;2023-10-08T08:38:56;13.76;48.81
65766;SHT31;52915;53.718;19.946;2023-10-08T08:44:01;13.73;48.44
65766;SHT31;52915;53.718;19.946;2023-10-08T08:49:11;13.71;48.42
65766;SHT31;52915;53.718;19.946;2023-10-08T08:54:16;14.08;48.42
65766;SHT31;52915;53.718;19.946;2023-10-08T08:59:20;14.19;47.28
65766;SHT31;52915;53.718;19.946;2023-10-08T09:04:27;14.29;46.99
65766;SHT31;52915;53.718;19.946;2023-10-08T09:09:36;14.28;47.17
65766;SHT31;52915;53.718;19.946;2023-10-08T09:14:48;14.12;46.74
65766;SHT31;52915;53.718;19.946;2023-10-08T09:19:52;14.00;47.31
65766;SHT31;52915;53.718;19.946;2023-10-08T09:24:57;14.34;47.44
65766;SHT31;52915;53.718;19.946;2023-10-08T09:30:04;14.34;47.38
65766;SHT31;52915;53.718;19.946;2023-10-08T09:35:12;14.61;46.10
65766;SHT31;52915;53.718;19.946;2023-10-08T09:40:17;14.71;44.74
65766;SHT31;52915;53.718;19.946;2023-10-08T09:45:24;14.46;44.26
65766;SHT31;52915;53.718;19.946;2023-10-08T09:50:31;14.42;43.33
65766;SHT31;52915;53.718;19.946;2023-10-08T09:55:44;14.36;43.92
65766;SHT31;52915;53.718;19.946;2023-10-08T10:06:17;15.13;42.63
65766;SHT31;52915;53.718;19.946;2023-10-08T10:11:25;14.98;41.65
65766;SHT31;52915;53.718;19.946;2023-10-08T10:16:32;15.20;41.80
65766;SHT31;52915;53.718;19.946;2023-10-08T10:21:41;15.39;40.29
65766;SHT31;52915;53.718;19.946;2023-10-08T10:26:45;15.19;39.38
65766;SHT31;52915;53.718;19.946;2023-10-08T10:31:54;15.33;38.94
65766;SHT31;52915;53.718;19.946;2023-10-08T10:37:00;15.00;38.49
65766;SHT31;52915;53.718;19.946;2023-10-08T10:42:35;14.93;38.22
65766;SHT31;52915;53.718;19.946;2023-10-08T10:47:52;14.80;37.78
65766;SHT31;52915;53.718;19.946;2023-10-08T10:53:04;14.71;38.28
65766;SHT31;52915;53.718;19.946;2023-10-08T10:58:14;15.09;38.21
65766;SHT31;52915;53.718;19.946;2023-10-08T11:03:29;15.53;37.06
65766;SHT31;52915;53.718;19.946;2023-10-08T11:08:38;15.87;36.47
65766;SHT31;52915;53.718;19.946;2023-10-08T11:13:50;16.38;36.33
65766;SHT31;52915;53.718;19.946;2023-10-08T11:18:59;16.74;35.58
65766;SHT31;52915;53.718;19.946;2023-10-08T11:24:10;16.86;34.65
65766;SHT31;52915;53.718;19.946;2023-10-08T11:29:16;16.33;34.85
65766;SHT31;52915;53.718;19.946;2023-10-08T11:34:31;16.00;35.71
65766;SHT31;52915;53.718;19.946;2023-10-08T11:39:42;15.94;35.46
65766;SHT31;52915;53.718;19.946;2023-10-08T11:44:48;16.06;36.47
65766;SHT31;52915;53.718;19.946;2023-10-08T11:49:55;16.43;35.64
65766;SHT31;52915;53.718;19.946;2023-10-08T11:55:13;16.53;34.94
65766;SHT31;52915;53.718;19.946;2023-10-08T12:00:23;16.69;34.93
65766;SHT31;52915;53.718;19.946;2023-10-08T12:05:34;16.62;34.65
65766;SHT31;52915;53.718;19.946;2023-10-08T12:10:38;16.06;35.18
65766;SHT31;52915;53.718;19.946;2023-10-08T12:15:44;15.79;36.08
65766;SHT31;52915;53.718;19.946;2023-10-08T12:20:48;15.87;36.12
65766;SHT31;52915;53.718;19.946;2023-10-08T12:25:52;15.72;35.25
65766;SHT31;52915;53.718;19.946;2023-10-08T12:31:01;15.72;36.69
65766;SHT31;52915;53.718;19.946;2023-10-08T12:36:09;15.85;36.13
65766;SHT31;52915;53.718;19.946;2023-10-08T12:41:15;16.03;36.36
65766;SHT31;52915;53.718;19.946;2023-10-08T12:46:22;15.87;35.86
65766;SHT31;52915;53.718;19.946;2023-10-08T12:51:30;15.93;36.04
65766;SHT31;52915;53.718;19.946;2023-10-08T12:56:37;15.98;35.65
65766;SHT31;52915;53.718;19.946;2023-10-08T13:01:52;15.87;35.76
65766;SHT31;52915;53.718;19.946;2023-10-08T13:07:01;16.25;35.54
65766;SHT31;52915;53.718;19.946;2023-10-08T13:12:06;16.47;35.60
65766;SHT31;52915;53.718;19.946;2023-10-08T13:17:11;16.87;35.71
65766;SHT31;52915;53.718;19.946;2023-10-08T13:22:15;16.94;35.54
65766;SHT31;52915;53.718;19.946;2023-10-08T13:27:23;17.47;35.33
65766;SHT31;52915;53.718;19.946;2023-10-08T13:32:27;16.83;35.28
65766;SHT31;52915;53.718;19.946;2023-10-08T13:37:32;15.61;37.53
65766;SHT31;52915;53.718;19.946;2023-10-08T13:42:41;15.40;38.14
65766;SHT31;52915;53.718;19.946;2023-10-08T13:47:46;17.89;34.65
65766;SHT31;52915;53.718;19.946;2023-10-08T13:52:51;18.14;34.85
65766;SHT31;52915;53.718;19.946;2023-10-08T13:57:56;20.31;31.90
65766;SHT31;52915;53.718;19.946;2023-10-08T14:03:01;20.51;30.52
65766;SHT31;52915;53.718;19.946;2023-10-08T14:08:12;20.12;30.92
65766;SHT31;52915;53.718;19.946;2023-10-08T14:13:19;17.69;34.31
65766;SHT31;52915;53.718;19.946;2023-10-08T14:18:23;16.02;36.97
65766;SHT31;52915;53.718;19.946;2023-10-08T14:23:33;14.58;40.25
65766;SHT31;52915;53.718;19.946;2023-10-08T14:28:42;13.56;42.49
65766;SHT31;52915;53.718;19.946;2023-10-08T14:34:02;12.87;44.22
65766;SHT31;52915;53.718;19.946;2023-10-08T14:39:23;12.47;45.81
65766;SHT31;52915;53.718;19.946;2023-10-08T14:44:46;12.32;46.86
65766;SHT31;52915;53.718;19.946;2023-10-08T14:49:52;14.25;43.83
65766;SHT31;52915;53.718;19.946;2023-10-08T14:54:57;15.23;41.65
65766;SHT31;52915;53.718;19.946;2023-10-08T15:00:07;15.93;39.94
65766;SHT31;52915;53.718;19.946;2023-10-08T15:05:14;15.76;39.91
65766;SHT31;52915;53.718;19.946;2023-10-08T15:10:19;14.14;42.79
65766;SHT31;52915;53.718;19.946;2023-10-08T15:15:26;13.05;44.90
65766;SHT31;52915;53.718;19.946;2023-10-08T15:20:39;12.37;46.58
65766;SHT31;52915;53.718;19.946;2023-10-08T15:25:45;11.92;47.72
65766;SHT31;52915;53.718;19.946;2023-10-08T15:30:49;11.62;48.60
65766;SHT31;52915;53.718;19.946;2023-10-08T15:35:54;11.28;49.78
65766;SHT31;52915;53.718;19.946;2023-10-08T15:41:00;11.02;50.88
65766;SHT31;52915;53.718;19.946;2023-10-08T15:46:04;10.77;51.71
65766;SHT31;52915;53.718;19.946;2023-10-08T15:51:09;10.57;52.49
65766;SHT31;52915;53.718;19.946;2023-10-08T15:56:13;10.42;53.08
65766;SHT31;52915;53.718;19.946;2023-10-08T16:01:18;10.26;53.74
65766;SHT31;52915;53.718;19.946;2023-10-08T16:06:22;10.09;54.33
65766;SHT31;52915;53.718;19.946;2023-10-08T16:11:27;9.99;54.81
65766;SHT31;52915;53.718;19.946;2023-10-08T16:16:34;9.85;55.37
65766;SHT31;52915;53.718;19.946;2023-10-08T16:21:40;9.76;55.88
65766;SHT31;52915;53.718;19.946;2023-10-08T16:26:52;9.65;56.53
65766;SHT31;52915;53.718;19.946;2023-10-08T16:31:57;9.62;56.87
65766;SHT31;52915;53.718;19.946;2023-10-08T16:37:03;9.55;57.26
65766;SHT31;52915;53.718;19.946;2023-10-08T16:42:08;9.46;57.72
65766;SHT31;52915;53.718;19.946;2023-10-08T16:47:12;9.36;58.15
65766;SHT31;52915;53.718;19.946;2023-10-08T16:52:21;9.31;58.19
65766;SHT31;52915;53.718;19.946;2023-10-08T16:57:28;9.21;58.38
65766;SHT31;52915;53.718;19.946;2023-10-08T17:02:33;9.11;58.65
65766;SHT31;52915;53.718;19.946;2023-10-08T17:07:37;9.00;58.85
65766;SHT31;52915;53.718;19.946;2023-10-08T17:12:41;8.91;59.13
65766;SHT31;52915;53.718;19.946;2023-10-08T17:17:46;8.85;59.22
65766;SHT31;52915;53.718;19.946;2023-10-08T17:22:53;8.73;59.76
65766;SHT31;52915;53.718;19.946;2023-10-08T17:27:59;8.68;59.88
65766;SHT31;52915;53.718;19.946;2023-10-08T17:33:05;8.59;60.31
65766;SHT31;52915;53.718;19.946;2023-10-08T17:38:11;8.52;60.72
65766;SHT31;52915;53.718;19.946;2023-10-08T17:43:21;8.44;61.28
65766;SHT31;52915;53.718;19.946;2023-10-08T17:48:25;8.37;62.06
65766;SHT31;52915;53.718;19.946;2023-10-08T17:53:31;8.30;62.31
65766;SHT31;52915;53.718;19.946;2023-10-08T17:58:38;8.22;62.40
65766;SHT31;52915;53.718;19.946;2023-10-08T18:03:43;8.15;62.51
65766;SHT31;52915;53.718;19.946;2023-10-08T18:08:52;8.08;62.76
65766;SHT31;52915;53.718;19.946;2023-10-08T18:16:48;7.94;63.33
65766;SHT31;52915;53.718;19.946;2023-10-08T18:21:55;7.86;63.60
65766;SHT31;52915;53.718;19.946;2023-10-08T18:27:04;7.82;63.89
65766;SHT31;52915;53.718;19.946;2023-10-08T18:32:17;7.76;64.14
65766;SHT31;52915;53.718;19.946;2023-10-08T18:37:30;7.71;64.37
65766;SHT31;52915;53.718;19.946;2023-10-08T18:42:52;7.66;64.60
65766;SHT31;52915;53.718;19.946;2023-10-08T18:47:58;7.64;64.83
65766;SHT31;52915;53.718;19.946;2023-10-08T18:53:20;7.64;64.99
65766;SHT31;52915;53.718;19.946;2023-10-08T18:58:24;7.67;65.05
65766;SHT31;52915;53.718;19.946;2023-10-08T19:03:30;7.71;65.12
65766;SHT31;52915;53.718;19.946;2023-10-08T19:08:37;7.76;65.19
65766;SHT31;52915;53.718;19.946;2023-10-08T19:13:48;7.81;65.09
65766;SHT31;52915;53.718;19.946;2023-10-08T19:18:53;7.83;65.24
65766;SHT31;52915;53.718;19.946;2023-10-08T19:24:00;7.84;65.32
65766;SHT31;52915;53.718;19.946;2023-10-08T19:29:06;7.83;65.43
65766;SHT31;52915;53.718;19.946;2023-10-08T19:34:12;7.78;65.54
65766;SHT31;52915;53.718;19.946;2023-10-08T19:39:16;7.74;65.72
65766;SHT31;52915;53.718;19.946;2023-10-08T19:44:21;7.66;65.99
65766;SHT31;52915;53.718;19.946;2023-10-08T19:49:25;7.62;66.14
65766;SHT31;52915;53.718;19.946;2023-10-08T19:54:29;7.61;66.23
65766;SHT31;52915;53.718;19.946;2023-10-08T19:59:33;7.60;66.46
65766;SHT31;52915;53.718;19.946;2023-10-08T20:04:38;7.60;66.74
65766;SHT31;52915;53.718;19.946;2023-10-08T20:09:42;7.55;67.03
65766;SHT31;52915;53.718;19.946;2023-10-08T20:14:48;7.49;67.20
65766;SHT31;52915;53.718;19.946;2023-10-08T20:19:55;7.42;67.56
65766;SHT31;52915;53.718;19.946;2023-10-08T20:24:58;7.39;67.74
65766;SHT31;52915;53.718;19.946;2023-10-08T20:30:04;7.33;67.93
65766;SHT31;52915;53.718;19.946;2023-10-08T20:35:09;7.27;68.24
65766;SHT31;52915;53.718;19.946;2023-10-08T20:40:13;7.23;68.57
65766;SHT31;52915;53.718;19.946;2023-10-08T20:45:18;7.18;68.71
65766;SHT31;52915;53.718;19.946;2023-10-08T20:50:30;7.13;68.94
65766;SHT31;52915;53.718;19.946;2023-10-08T20:55:36;7.12;69.14
65766;SHT31;52915;53.718;19.946;2023-10-08T21:00:45;7.02;69.38
65766;SHT31;52915;53.718;19.946;2023-10-08T21:05:50;6.93;69.59
65766;SHT31;52915;53.718;19.946;2023-10-08T21:10:55;6.89;69.67
65766;SHT31;52915;53.718;19.946;2023-10-08T21:16:11;6.84;69.86
65766;SHT31;52915;53.718;19.946;2023-10-08T21:21:20;6.81;70.04
65766;SHT31;52915;53.718;19.946;2023-10-08T21:26:26;6.78;70.18
65766;SHT31;52915;53.718;19.946;2023-10-08T21:31:31;6.72;70.39
65766;SHT31;52915;53.718;19.946;2023-10-08T21:36:35;6.69;70.59
65766;SHT31;52915;53.718;19.946;2023-10-08T21:41:40;6.68;70.66
65766;SHT31;52915;53.718;19.946;2023-10-08T21:46:45;6.66;70.79
65766;SHT31;52915;53.718;19.946;2023-10-08T21:51:49;6.65;70.68
65766;SHT31;52915;53.718;19.946;2023-10-08T21:56:55;6.51;70.97
65766;SHT31;52915;53.718;19.946;2023-10-08T22:01:59;6.36;71.36
65766;SHT31;52915;53.718;19.946;2023-10-08T22:07:03;6.24;71.67
65766;SHT31;52915;53.718;19.946;2023-10-08T22:12:08;6.11;71.89
65766;SHT31;52915;53.718;19.946;2023-10-08T22:17:15;5.99;72.08
65766;SHT31;52915;53.718;19.946;2023-10-08T22:22:19;5.89;72.36
65766;SHT31;52915;53.718;19.946;2023-10-08T22:27:24;5.75;72.79
65766;SHT31;52915;53.718;19.946;2023-10-08T22:32:37;5.63;73.23
65766;SHT31;52915;53.718;19.946;2023-10-08T22:37:44;5.55;73.42
65766;SHT31;52915;53.718;19.946;2023-10-08T22:43:03;5.53;73.29
65766;SHT31;52915;53.718;19.946;2023-10-08T22:48:09;5.43;73.47
65766;SHT31;52915;53.718;19.946;2023-10-08T22:53:18;5.35;73.60
65766;SHT31;52915;53.718;19.946;2023-10-08T22:58:24;5.27;73.84
65766;SHT31;52915;53.718;19.946;2023-10-08T23:03:28;5.21;73.93
65766;SHT31;52915;53.718;19.946;2023-10-08T23:08:35;5.17;74.03
65766;SHT31;52915;53.718;19.946;2023-10-08T23:13:39;5.12;74.21
65766;SHT31;52915;53.718;19.946;2023-10-08T23:18:44;5.08;74.35
65766;SHT31;52915;53.718;19.946;2023-10-08T23:23:49;5.01;74.49
65766;SHT31;52915;53.718;19.946;2023-10-08T23:28:53;4.97;74.51
65766;SHT31;52915;53.718;19.946;2023-10-08T23:33:58;4.90;74.78
65766;SHT31;52915;53.718;19.946;2023-10-08T23:39:04;4.87;74.83
65766;SHT31;52915;53.718;19.946;2023-10-08T23:44:19;4.87;74.88
65766;SHT31;52915;53.718;19.946;2023-10-08T23:49:34;4.84;75.08
65766;SHT31;52915;53.718;19.946;2023-10-08T23:55:15;4.78;75.35
